createdAt,value
2022-11-25T00:01:34.059Z,3.20
2022-11-25T00:04:02.277Z,3.17
2022-11-25T00:06:34.349Z,3.27
2022-11-25T00:09:10.038Z,3.20
2022-11-25T00:11:41.334Z,3.20
2022-11-25T00:14:14.219Z,3.20
2022-11-25T00:16:45.185Z,3.23
2022-11-25T00:19:16.315Z,3.17
2022-11-25T00:21:43.814Z,3.20
2022-11-25T00:24:15.996Z,3.20
2022-11-25T00:26:43.499Z,3.20
2022-11-25T00:29:12.255Z,3.30
2022-11-25T00:31:41.344Z,3.23
2022-11-25T00:34:14.220Z,3.30
2022-11-25T00:36:41.967Z,3.20
2022-11-25T00:39:16.595Z,3.20
2022-11-25T00:42:04.461Z,3.27
2022-11-25T00:44:41.975Z,3.30
2022-11-25T00:47:21.543Z,3.20
2022-11-25T00:49:53.384Z,3.17
2022-11-25T00:52:25.957Z,3.20
2022-11-25T00:54:54.001Z,3.20
2022-11-25T00:57:23.930Z,3.10
2022-11-25T00:59:51.421Z,3.17
2022-11-25T01:02:21.502Z,3.20
2022-11-25T01:04:49.044Z,3.20
2022-11-25T01:07:17.496Z,3.20
2022-11-25T01:09:44.880Z,3.20
2022-11-25T01:12:12.143Z,3.13
2022-11-25T01:14:39.468Z,3.20
2022-11-25T01:17:06.641Z,3.17
2022-11-25T01:19:38.253Z,3.17
2022-11-25T01:22:05.207Z,3.23
2022-11-25T01:24:32.295Z,3.20
2022-11-25T01:26:59.331Z,3.20
2022-11-25T01:29:26.748Z,3.20
2022-11-25T01:31:56.723Z,3.20
2022-11-25T01:34:27.344Z,3.20
2022-11-25T01:36:57.351Z,3.20
2022-11-25T01:39:32.115Z,3.20
2022-11-25T01:42:01.081Z,3.17
2022-11-25T01:44:32.268Z,3.27
2022-11-25T01:47:25.851Z,3.20
2022-11-25T01:50:05.262Z,3.20
2022-11-25T01:52:43.504Z,3.20
2022-11-25T01:55:18.671Z,3.30
2022-11-25T01:58:16.387Z,3.27
2022-11-25T02:00:51.103Z,3.20
2022-11-25T02:03:33.027Z,3.23
2022-11-25T02:06:36.005Z,3.20
2022-11-25T02:09:08.494Z,3.27
2022-11-25T02:11:40.344Z,3.20
2022-11-25T02:14:09.784Z,3.20
2022-11-25T02:16:36.946Z,3.27
2022-11-25T02:19:07.172Z,3.27
2022-11-25T02:21:47.289Z,3.23
2022-11-25T02:24:43.428Z,3.20
2022-11-25T02:27:13.893Z,3.27
2022-11-25T02:29:44.740Z,3.30
2022-11-25T02:32:12.373Z,3.27
2022-11-25T02:34:47.885Z,3.30
2022-11-25T02:37:19.040Z,3.30
2022-11-25T02:39:48.274Z,3.30
2022-11-25T02:42:19.988Z,3.33
2022-11-25T02:44:49.497Z,3.27
2022-11-25T02:47:17.377Z,3.27
2022-11-25T02:49:45.552Z,3.20
2022-11-25T02:52:13.577Z,3.20
2022-11-25T02:54:42.054Z,3.20
2022-11-25T02:57:09.025Z,3.23
2022-11-25T02:59:36.206Z,3.30
2022-11-25T03:02:04.575Z,3.23
2022-11-25T03:04:31.621Z,3.20
2022-11-25T03:07:08.688Z,3.20
2022-11-25T03:09:35.674Z,3.20
2022-11-25T03:12:21.025Z,3.20
2022-11-25T03:14:53.546Z,3.27
2022-11-25T03:17:21.155Z,3.23
2022-11-25T03:19:48.127Z,3.30
2022-11-25T03:22:15.698Z,3.23
2022-11-25T03:24:44.507Z,3.27
2022-11-25T03:27:11.908Z,3.30
2022-11-25T03:29:38.887Z,3.27
2022-11-25T03:32:09.513Z,3.23
2022-11-25T03:34:38.278Z,3.27
2022-11-25T03:37:06.412Z,3.30
2022-11-25T03:39:34.194Z,3.20
2022-11-25T03:42:01.276Z,3.20
2022-11-25T03:44:28.300Z,3.30
2022-11-25T03:46:56.098Z,3.23
2022-11-25T03:49:23.193Z,3.30
2022-11-25T03:51:50.284Z,3.27
2022-11-25T03:54:19.098Z,3.30
2022-11-25T03:57:14.659Z,3.30
2022-11-25T03:59:41.712Z,3.23
2022-11-25T04:02:09.063Z,3.30
2022-11-25T04:04:36.998Z,3.27
2022-11-25T04:07:04.822Z,3.30
2022-11-25T04:09:32.079Z,3.30
2022-11-25T04:12:19.919Z,3.30
2022-11-25T04:14:54.584Z,3.23
2022-11-25T04:17:21.665Z,3.33
2022-11-25T04:19:49.100Z,3.33
2022-11-25T04:22:17.620Z,3.30
2022-11-25T04:24:47.033Z,3.27
2022-11-25T04:27:20.583Z,3.27
2022-11-25T04:29:48.580Z,3.30
2022-11-25T04:32:16.316Z,3.27
2022-11-25T04:34:43.460Z,3.30
2022-11-25T04:37:10.779Z,3.20
2022-11-25T04:39:40.547Z,3.27
2022-11-25T04:42:36.360Z,3.23
2022-11-25T04:45:33.429Z,3.37
2022-11-25T04:48:00.116Z,3.23
2022-11-25T04:50:27.552Z,3.27
2022-11-25T04:53:06.558Z,3.20
2022-11-25T04:55:34.104Z,3.20
2022-11-25T04:58:05.044Z,3.27
2022-11-25T05:00:34.529Z,3.37
2022-11-25T05:03:04.900Z,3.30
2022-11-25T05:05:33.316Z,3.33
2022-11-25T05:08:00.377Z,3.33
2022-11-25T05:10:28.616Z,3.27
2022-11-25T05:12:55.649Z,3.30
2022-11-25T05:15:22.844Z,3.20
2022-11-25T05:17:50.344Z,3.33
2022-11-25T05:20:26.417Z,3.30
2022-11-25T05:22:53.537Z,3.30
2022-11-25T05:25:24.526Z,3.30
2022-11-25T05:28:05.309Z,3.30
2022-11-25T05:30:32.832Z,3.27
2022-11-25T05:33:00.494Z,3.30
2022-11-25T05:35:27.530Z,3.30
2022-11-25T05:37:54.913Z,3.33
2022-11-25T05:40:22.785Z,3.30
2022-11-25T05:43:04.163Z,3.30
2022-11-25T05:45:34.833Z,3.23
2022-11-25T05:48:04.222Z,3.27
2022-11-25T05:50:33.351Z,3.27
2022-11-25T05:53:05.762Z,3.27
2022-11-25T05:55:35.229Z,3.27
2022-11-25T05:58:06.127Z,3.30
2022-11-25T06:00:33.774Z,3.30
2022-11-25T06:03:05.718Z,3.27
2022-11-25T06:05:35.530Z,3.20
2022-11-25T06:08:03.705Z,3.27
2022-11-25T06:10:31.710Z,3.23
2022-11-25T06:12:58.762Z,3.30
2022-11-25T06:15:26.250Z,3.27
2022-11-25T06:17:58.006Z,3.20
2022-11-25T06:20:27.302Z,3.27
2022-11-25T06:22:54.579Z,3.27
2022-11-25T06:25:28.814Z,3.20
2022-11-25T06:28:12.488Z,3.23
2022-11-25T06:30:40.323Z,3.17
2022-11-25T06:33:17.575Z,3.27
2022-11-25T06:35:46.414Z,3.27
2022-11-25T06:38:13.383Z,3.27
2022-11-25T06:40:40.351Z,3.30
2022-11-25T06:43:08.035Z,3.20
2022-11-25T06:45:35.034Z,3.20
2022-11-25T06:48:02.550Z,3.20
2022-11-25T06:50:29.971Z,3.20
2022-11-25T06:52:56.970Z,3.23
2022-11-25T06:55:23.902Z,3.20
2022-11-25T06:58:08.417Z,3.20
2022-11-25T07:00:40.982Z,3.30
2022-11-25T07:03:07.918Z,3.20
2022-11-25T07:05:34.943Z,3.23
2022-11-25T07:08:01.871Z,3.20
2022-11-25T07:10:29.283Z,3.30
2022-11-25T07:12:57.303Z,3.20
2022-11-25T07:15:24.276Z,3.20
2022-11-25T07:17:51.650Z,3.23
2022-11-25T07:20:19.028Z,3.20
2022-11-25T07:22:47.155Z,3.23
2022-11-25T07:25:14.200Z,3.20
2022-11-25T07:27:41.620Z,3.20
2022-11-25T07:32:56.436Z,3.27
2022-11-25T07:35:23.833Z,3.20
2022-11-25T07:37:50.798Z,3.20
2022-11-25T07:40:17.841Z,3.23
2022-11-25T07:42:45.258Z,3.10
2022-11-25T07:45:12.193Z,3.20
2022-11-25T07:47:44.534Z,3.17
2022-11-25T07:50:12.227Z,3.20
2022-11-25T07:52:40.807Z,3.20
2022-11-25T07:55:08.827Z,3.17
2022-11-25T07:57:36.276Z,3.20
2022-11-25T08:00:04.809Z,3.13
2022-11-25T08:02:38.914Z,3.13
2022-11-25T08:05:07.101Z,3.20
2022-11-25T08:07:36.680Z,3.13
2022-11-25T08:10:04.839Z,3.10
2022-11-25T08:12:34.860Z,3.10
2022-11-25T08:15:02.298Z,3.13
2022-11-25T08:17:29.243Z,3.20
2022-11-25T08:19:56.677Z,3.13
2022-11-25T08:22:24.025Z,3.10
2022-11-25T08:24:51.031Z,3.13
2022-11-25T08:27:18.720Z,3.20
2022-11-25T08:29:45.702Z,3.17
2022-11-25T08:32:13.166Z,3.10
2022-11-25T08:34:40.144Z,3.07
2022-11-25T08:37:09.085Z,3.10
2022-11-25T08:39:51.771Z,3.10
2022-11-25T08:42:19.723Z,3.00
2022-11-25T08:44:52.962Z,3.00
2022-11-25T08:47:20.014Z,2.90
2022-11-25T08:49:51.333Z,2.97
2022-11-25T08:52:18.298Z,2.90
2022-11-25T08:54:45.703Z,2.93
2022-11-25T08:57:12.934Z,2.90
2022-11-25T08:59:40.577Z,2.90
2022-11-25T09:03:44.900Z,2.97
2022-11-25T09:06:13.330Z,2.97
2022-11-25T09:08:43.218Z,2.80
2022-11-25T09:11:12.014Z,2.87
2022-11-25T09:13:39.439Z,2.80
2022-11-25T09:16:07.445Z,2.80
2022-11-25T09:18:36.835Z,2.73
2022-11-25T09:21:14.626Z,2.80
2022-11-25T09:23:41.667Z,2.80
2022-11-25T09:26:18.251Z,2.90
2022-11-25T09:28:45.292Z,2.80
2022-11-25T09:31:12.327Z,2.80
2022-11-25T09:33:39.772Z,2.83
2022-11-25T09:36:07.405Z,2.93
2022-11-25T09:38:37.707Z,2.87
2022-11-25T09:42:01.623Z,2.80
2022-11-25T09:45:02.736Z,2.77
2022-11-25T09:47:57.294Z,2.80
2022-11-25T09:50:46.188Z,2.80
2022-11-25T09:53:48.125Z,2.70
2022-11-25T09:56:33.456Z,2.80
2022-11-25T09:59:21.331Z,2.80
2022-11-25T10:02:02.149Z,2.73
2022-11-25T10:04:54.552Z,2.70
2022-11-25T10:07:38.646Z,2.70
2022-11-25T10:10:19.769Z,2.63
2022-11-25T10:12:49.321Z,2.60
2022-11-25T10:15:28.277Z,2.70
2022-11-25T10:18:03.611Z,2.70
2022-11-25T10:20:40.404Z,2.80
2022-11-25T10:23:32.718Z,2.77
2022-11-25T10:26:16.839Z,2.70
2022-11-25T10:29:06.200Z,2.77
2022-11-25T10:31:37.010Z,2.70
2022-11-25T10:34:40.684Z,2.67
2022-11-25T10:37:29.730Z,2.90
2022-11-25T10:39:56.883Z,2.83
2022-11-25T10:42:27.735Z,2.73
2022-11-25T10:44:55.709Z,2.60
2022-11-25T10:48:18.440Z,2.63
2022-11-25T10:51:05.844Z,2.70
2022-11-25T10:53:32.821Z,2.80
2022-11-25T10:56:18.216Z,2.80
2022-11-25T10:58:46.138Z,2.70
2022-11-25T11:01:25.291Z,2.77
2022-11-25T11:04:06.326Z,2.70
2022-11-25T11:06:45.892Z,2.80
2022-11-25T11:09:38.871Z,3.00
2022-11-25T11:12:28.469Z,2.70
2022-11-25T11:15:32.252Z,2.70
2022-11-25T11:18:37.360Z,2.77
2022-11-25T11:21:29.301Z,2.70
2022-11-25T11:23:57.361Z,2.70
2022-11-25T11:26:34.761Z,2.77
2022-11-25T11:29:21.065Z,2.70
2022-11-25T11:32:00.633Z,2.70
2022-11-25T11:35:23.841Z,2.73
2022-11-25T11:37:59.547Z,2.70
2022-11-25T11:40:46.385Z,2.80
2022-11-25T11:43:51.571Z,2.80
2022-11-25T11:47:31.510Z,2.70
2022-11-25T11:50:33.405Z,2.80
2022-11-25T11:53:54.600Z,2.70
2022-11-25T11:56:38.917Z,2.70
2022-11-25T11:59:26.865Z,2.70
2022-11-25T12:02:21.579Z,2.73
2022-11-25T12:05:10.562Z,2.70
2022-11-25T12:08:23.130Z,2.73
2022-11-25T12:11:03.734Z,2.70
2022-11-25T12:14:01.203Z,2.60
2022-11-25T12:16:45.227Z,2.80
2022-11-25T12:20:00.743Z,2.80
2022-11-25T12:22:52.146Z,2.70
2022-11-25T12:25:30.074Z,2.70
2022-11-25T12:28:19.646Z,2.70
2022-11-25T12:31:24.900Z,2.77
2022-11-25T12:34:23.329Z,2.70
2022-11-25T12:37:15.754Z,2.70
2022-11-25T12:40:13.859Z,2.80
2022-11-25T12:42:44.083Z,2.67
2022-11-25T12:45:26.455Z,2.67
2022-11-25T12:47:54.127Z,2.70
2022-11-25T12:51:10.617Z,2.60
2022-11-25T12:54:02.274Z,2.70
2022-11-25T12:57:27.298Z,2.60
2022-11-25T13:00:50.707Z,2.80
2022-11-25T13:04:15.383Z,2.70
2022-11-25T13:07:27.576Z,2.80
2022-11-25T13:10:27.263Z,2.70
2022-11-25T13:13:25.153Z,2.60
2022-11-25T13:15:55.386Z,2.67
2022-11-25T13:18:29.136Z,2.63
2022-11-25T13:21:06.360Z,2.67
2022-11-25T13:23:56.370Z,2.73
2022-11-25T13:26:35.973Z,2.63
2022-11-25T13:29:15.139Z,2.70
2022-11-25T13:32:11.965Z,2.70
2022-11-25T13:34:39.301Z,2.77
2022-11-25T13:37:39.935Z,2.70
2022-11-25T13:40:28.421Z,2.73
2022-11-25T13:42:57.184Z,2.70
2022-11-25T13:45:39.054Z,2.70
2022-11-25T13:48:26.888Z,2.70
2022-11-25T13:51:21.730Z,2.63
2022-11-25T13:53:58.044Z,2.80
2022-11-25T13:56:32.441Z,2.70
2022-11-25T13:59:11.740Z,2.70
2022-11-25T14:01:46.802Z,2.67
2022-11-25T14:04:16.396Z,2.73
2022-11-25T14:07:06.884Z,2.70
2022-11-25T14:10:22.831Z,2.70
2022-11-25T14:13:09.270Z,2.70
2022-11-25T14:16:23.756Z,2.70
2022-11-25T14:19:35.221Z,2.70
2022-11-25T14:23:22.466Z,2.70
2022-11-25T14:26:16.323Z,2.70
2022-11-25T14:29:13.637Z,2.70
2022-11-25T14:31:52.115Z,2.70
2022-11-25T14:34:35.957Z,2.73
2022-11-25T14:37:41.838Z,2.83
2022-11-25T14:40:24.610Z,2.80
2022-11-25T14:43:03.589Z,2.70
2022-11-25T14:45:34.749Z,2.70
2022-11-25T14:48:21.800Z,2.80
2022-11-25T14:51:01.649Z,2.77
2022-11-25T14:53:30.782Z,2.80
2022-11-25T14:56:00.626Z,2.70
2022-11-25T14:58:29.274Z,2.70
2022-11-25T15:01:18.768Z,2.73
2022-11-25T15:03:51.503Z,2.90
2022-11-25T15:06:21.049Z,2.70
2022-11-25T15:08:58.443Z,2.67
2022-11-25T15:11:33.603Z,2.90
2022-11-25T15:14:06.629Z,2.60
2022-11-25T15:16:42.047Z,2.77
2022-11-25T15:19:20.503Z,2.73
2022-11-25T15:24:54.470Z,2.70
2022-11-25T15:27:28.336Z,2.73
2022-11-25T15:29:57.521Z,2.70
2022-11-25T15:32:32.734Z,2.80
2022-11-25T15:35:02.271Z,2.87
2022-11-25T15:37:29.916Z,2.70
2022-11-25T15:40:40.575Z,2.83
2022-11-25T15:43:25.802Z,2.80
2022-11-25T15:46:02.353Z,2.77
2022-11-25T15:48:46.487Z,2.70
2022-11-25T15:51:43.825Z,2.73
2022-11-25T15:54:20.111Z,2.70
2022-11-25T15:56:52.868Z,2.80
2022-11-25T15:59:55.715Z,2.80
2022-11-25T16:02:42.188Z,2.70
2022-11-25T16:05:16.012Z,2.80
2022-11-25T16:07:52.329Z,2.70
2022-11-25T16:10:50.558Z,2.73
2022-11-25T16:13:23.857Z,2.80
2022-11-25T16:16:30.497Z,2.73
2022-11-25T16:19:18.455Z,2.70
2022-11-25T16:22:03.171Z,2.70
2022-11-25T16:24:40.452Z,2.70
2022-11-25T16:27:23.587Z,2.70
2022-11-25T16:30:18.410Z,2.70
2022-11-25T16:32:45.976Z,2.67
2022-11-25T16:35:22.020Z,2.83
2022-11-25T16:37:49.934Z,2.80
2022-11-25T16:40:18.908Z,2.70
2022-11-25T16:42:50.377Z,2.80
2022-11-25T16:45:28.157Z,2.70
2022-11-25T16:47:55.657Z,2.77
2022-11-25T16:50:23.426Z,2.70
2022-11-25T16:52:50.952Z,2.70
2022-11-25T16:55:18.431Z,2.70
2022-11-25T16:57:45.928Z,2.70
2022-11-25T17:00:16.816Z,2.77
2022-11-25T17:02:44.677Z,2.70
2022-11-25T17:05:25.465Z,2.70
2022-11-25T17:07:53.110Z,2.67
2022-11-25T17:10:21.378Z,2.70
2022-11-25T17:12:49.784Z,2.60
2022-11-25T17:15:24.953Z,2.67
2022-11-25T17:17:52.523Z,2.73
2022-11-25T17:20:25.029Z,2.80
2022-11-25T17:22:53.915Z,2.80
2022-11-25T17:25:23.533Z,2.70
2022-11-25T17:27:51.707Z,2.80
2022-11-25T17:30:26.517Z,2.80
2022-11-25T17:33:04.092Z,2.73
2022-11-25T17:35:31.155Z,2.77
2022-11-25T17:38:00.894Z,2.73
2022-11-25T17:40:28.235Z,2.63
2022-11-25T17:42:55.492Z,2.70
2022-11-25T17:45:22.762Z,2.70
2022-11-25T17:47:50.145Z,2.70
2022-11-25T17:50:25.997Z,2.80
2022-11-25T17:52:53.246Z,2.70
2022-11-25T17:55:22.748Z,2.73
2022-11-25T17:57:50.475Z,2.73
2022-11-25T18:00:21.883Z,2.70
2022-11-25T18:02:50.120Z,2.70
2022-11-25T18:05:22.770Z,2.70
2022-11-25T18:07:50.652Z,2.70
2022-11-25T18:10:24.228Z,2.70
2022-11-25T18:12:55.388Z,2.70
2022-11-25T18:15:28.218Z,2.80
2022-11-25T18:18:20.279Z,2.70
2022-11-25T18:20:48.470Z,2.80
2022-11-25T18:23:15.827Z,2.80
2022-11-25T18:25:44.115Z,2.70
2022-11-25T18:28:25.224Z,2.73
2022-11-25T18:30:55.723Z,2.70
2022-11-25T18:33:23.207Z,2.80
2022-11-25T18:35:50.215Z,2.67
2022-11-25T18:38:17.347Z,2.73
2022-11-25T18:40:48.920Z,2.70
2022-11-25T18:43:24.831Z,2.70
2022-11-25T18:45:54.236Z,2.70
2022-11-25T18:48:26.882Z,2.70
2022-11-25T18:50:56.912Z,2.77
2022-11-25T18:53:24.213Z,2.70
2022-11-25T18:55:51.383Z,2.67
2022-11-25T18:58:24.060Z,2.70
2022-11-25T19:00:52.615Z,2.67
2022-11-25T19:03:25.120Z,2.67
2022-11-25T19:05:58.547Z,2.67
2022-11-25T19:08:26.270Z,2.70
2022-11-25T19:10:53.448Z,2.70
2022-11-25T19:13:32.595Z,2.70
2022-11-25T19:16:12.003Z,2.70
2022-11-25T19:18:39.569Z,2.80
2022-11-25T19:21:06.664Z,2.67
2022-11-25T19:23:35.862Z,2.70
2022-11-25T19:26:41.760Z,2.70
2022-11-25T19:29:31.824Z,2.70
2022-11-25T19:32:01.993Z,2.70
2022-11-25T19:34:44.753Z,2.73
2022-11-25T19:37:20.841Z,2.80
2022-11-25T19:39:51.304Z,2.70
2022-11-25T19:42:18.852Z,2.70
2022-11-25T19:44:47.078Z,2.70
2022-11-25T19:47:24.971Z,2.80
2022-11-25T19:49:58.384Z,2.70
2022-11-25T19:52:37.645Z,2.63
2022-11-25T19:55:24.869Z,2.70
2022-11-25T19:57:53.069Z,2.70
2022-11-25T20:00:23.344Z,2.70
2022-11-25T20:02:56.027Z,2.70
2022-11-25T20:05:38.208Z,2.60
2022-11-25T20:08:05.829Z,2.67
2022-11-25T20:10:34.122Z,2.80
2022-11-25T20:13:01.702Z,2.77
2022-11-25T20:15:28.805Z,2.70
2022-11-25T20:18:00.829Z,2.67
2022-11-25T20:20:35.016Z,2.70
2022-11-25T20:23:16.082Z,2.70
2022-11-25T20:25:47.790Z,2.77
2022-11-25T20:28:26.245Z,2.70
2022-11-25T20:30:54.189Z,2.67
2022-11-25T20:33:24.736Z,2.70
2022-11-25T20:36:03.909Z,2.73
2022-11-25T20:38:33.601Z,2.70
2022-11-25T20:41:01.569Z,2.70
2022-11-25T20:43:32.674Z,2.70
2022-11-25T20:46:02.258Z,2.67
2022-11-25T20:48:30.112Z,2.70
2022-11-25T20:51:02.289Z,2.70
2022-11-25T20:53:32.153Z,2.80
2022-11-25T20:56:00.230Z,2.80
2022-11-25T20:58:32.759Z,2.70
2022-11-25T21:00:59.973Z,2.70
2022-11-25T21:03:27.239Z,2.70
2022-11-25T21:05:55.670Z,2.70
2022-11-25T21:08:30.723Z,2.70
2022-11-25T21:10:59.214Z,2.67
2022-11-25T21:13:30.210Z,2.70
2022-11-25T21:15:57.561Z,2.70
2022-11-25T21:18:25.498Z,2.70
2022-11-25T21:20:56.694Z,2.70
2022-11-25T21:23:31.091Z,2.70
2022-11-25T21:26:12.462Z,2.70
2022-11-25T21:28:44.083Z,2.70
2022-11-25T21:31:21.508Z,2.63
2022-11-25T21:33:49.651Z,2.67
2022-11-25T21:36:22.416Z,2.70
2022-11-25T21:38:54.373Z,2.70
2022-11-25T21:41:22.026Z,2.70
2022-11-25T21:43:50.884Z,2.73
2022-11-25T21:46:24.760Z,2.73
2022-11-25T21:48:52.803Z,2.70
2022-11-25T21:51:21.690Z,2.80
2022-11-25T21:53:50.801Z,2.70
2022-11-25T21:56:36.571Z,2.60
2022-11-25T21:59:07.507Z,2.70
2022-11-25T22:01:34.664Z,2.63
2022-11-25T22:04:01.707Z,2.77
2022-11-25T22:06:31.754Z,2.70
2022-11-25T22:08:58.806Z,2.80
2022-11-25T22:11:37.398Z,2.80
2022-11-25T22:14:28.544Z,2.70
2022-11-25T22:16:57.145Z,2.70
2022-11-25T22:19:27.970Z,2.70
2022-11-25T22:21:55.680Z,2.73
2022-11-25T22:24:23.119Z,2.70
2022-11-25T22:26:57.437Z,2.63
2022-11-25T22:29:34.185Z,2.67
2022-11-25T22:32:05.016Z,2.73
2022-11-25T22:34:35.451Z,2.67
2022-11-25T22:37:03.002Z,2.70
2022-11-25T22:39:29.974Z,2.70
2022-11-25T22:42:05.368Z,2.70
2022-11-25T22:44:45.668Z,2.70
2022-11-25T22:47:38.936Z,2.70
2022-11-25T22:50:31.175Z,2.70
2022-11-25T22:53:01.066Z,2.70
2022-11-25T22:55:32.577Z,2.70
2022-11-25T22:58:01.598Z,2.70
2022-11-25T23:00:37.198Z,2.70
2022-11-25T23:03:10.609Z,2.60
2022-11-25T23:05:39.625Z,2.70
2022-11-25T23:08:24.608Z,2.63
2022-11-25T23:10:53.625Z,2.70
2022-11-25T23:13:20.767Z,2.67
2022-11-25T23:15:59.903Z,2.70
2022-11-25T23:18:38.378Z,2.70
2022-11-25T23:21:23.417Z,2.77
2022-11-25T23:23:51.453Z,2.67
2022-11-25T23:26:18.382Z,2.70
2022-11-25T23:28:45.865Z,2.70
2022-11-25T23:31:16.993Z,2.67
2022-11-25T23:33:51.733Z,2.70
2022-11-25T23:36:36.101Z,2.70
2022-11-25T23:39:03.848Z,2.70
2022-11-25T23:41:34.391Z,2.70
2022-11-25T23:44:29.589Z,2.70
2022-11-25T23:47:04.909Z,2.63
2022-11-25T23:49:39.509Z,2.70
2022-11-25T23:52:12.948Z,2.70
2022-11-25T23:54:46.641Z,2.70
2022-11-25T23:57:26.904Z,2.70
2022-11-25T23:59:54.326Z,2.80
